sensor_id;sensor_type;location;lat;lon;timestamp;P1;durP1;ratioP1;P2;durP2;ratioP2
8050;SDS011;4068;42.158;24.732;2023-04-16T00:01:18;2.85;;;2.58;;
8050;SDS011;4068;42.158;24.732;2023-04-16T00:03:44;8.45;;;2.60;;
8050;SDS011;4068;42.158;24.732;2023-04-16T00:06:10;4.80;;;3.00;;
8050;SDS011;4068;42.158;24.732;2023-04-16T00:08:36;8.10;;;3.10;;
8050;SDS011;4068;42.158;24.732;2023-04-16T00:11:02;6.20;;;2.63;;
8050;SDS011;4068;42.158;24.732;2023-04-16T00:13:27;7.28;;;2.72;;
8050;SDS011;4068;42.158;24.732;2023-04-16T00:15:52;3.60;;;2.80;;
8050;SDS011;4068;42.158;24.732;2023-04-16T00:18:18;5.75;;;2.90;;
8050;SDS011;4068;42.158;24.732;2023-04-16T00:20:45;6.80;;;3.30;;
8050;SDS011;4068;42.158;24.732;2023-04-16T00:23:10;7.63;;;2.88;;
8050;SDS011;4068;42.158;24.732;2023-04-16T00:25:36;3.83;;;2.97;;
8050;SDS011;4068;42.158;24.732;2023-04-16T00:28:01;3.78;;;2.75;;
8050;SDS011;4068;42.158;24.732;2023-04-16T00:30:28;4.63;;;2.78;;
8050;SDS011;4068;42.158;24.732;2023-04-16T00:32:54;7.95;;;2.92;;
8050;SDS011;4068;42.158;24.732;2023-04-16T00:35:20;5.00;;;2.72;;
8050;SDS011;4068;42.158;24.732;2023-04-16T00:37:45;5.25;;;2.90;;
8050;SDS011;4068;42.158;24.732;2023-04-16T00:40:10;10.35;;;3.22;;
8050;SDS011;4068;42.158;24.732;2023-04-16T00:42:36;5.00;;;2.97;;
8050;SDS011;4068;42.158;24.732;2023-04-16T00:45:02;2.95;;;2.75;;
8050;SDS011;4068;42.158;24.732;2023-04-16T00:47:29;3.28;;;2.97;;
8050;SDS011;4068;42.158;24.732;2023-04-16T00:49:55;10.40;;;3.35;;
8050;SDS011;4068;42.158;24.732;2023-04-16T00:52:20;7.88;;;3.53;;
8050;SDS011;4068;42.158;24.732;2023-04-16T00:54:45;4.53;;;3.05;;
8050;SDS011;4068;42.158;24.732;2023-04-16T00:57:12;5.78;;;3.25;;
8050;SDS011;4068;42.158;24.732;2023-04-16T00:59:39;5.50;;;3.00;;
8050;SDS011;4068;42.158;24.732;2023-04-16T01:02:05;4.63;;;2.90;;
8050;SDS011;4068;42.158;24.732;2023-04-16T01:04:31;4.57;;;2.80;;
8050;SDS011;4068;42.158;24.732;2023-04-16T01:06:57;8.80;;;3.05;;
8050;SDS011;4068;42.158;24.732;2023-04-16T01:09:23;10.82;;;3.25;;
8050;SDS011;4068;42.158;24.732;2023-04-16T01:11:49;4.57;;;3.50;;
8050;SDS011;4068;42.158;24.732;2023-04-16T01:14:14;8.63;;;3.00;;
8050;SDS011;4068;42.158;24.732;2023-04-16T01:16:40;7.57;;;3.42;;
8050;SDS011;4068;42.158;24.732;2023-04-16T01:19:05;5.53;;;3.20;;
8050;SDS011;4068;42.158;24.732;2023-04-16T01:21:31;6.53;;;3.17;;
8050;SDS011;4068;42.158;24.732;2023-04-16T01:23:56;6.40;;;3.28;;
8050;SDS011;4068;42.158;24.732;2023-04-16T01:26:21;5.32;;;3.70;;
8050;SDS011;4068;42.158;24.732;2023-04-16T01:28:47;4.78;;;3.63;;
8050;SDS011;4068;42.158;24.732;2023-04-16T01:31:12;7.00;;;3.60;;
8050;SDS011;4068;42.158;24.732;2023-04-16T01:33:37;6.70;;;3.38;;
8050;SDS011;4068;42.158;24.732;2023-04-16T01:36:03;6.93;;;3.53;;
8050;SDS011;4068;42.158;24.732;2023-04-16T01:38:29;5.53;;;3.28;;
8050;SDS011;4068;42.158;24.732;2023-04-16T01:40:57;9.30;;;3.70;;
8050;SDS011;4068;42.158;24.732;2023-04-16T01:43:23;6.05;;;3.40;;
8050;SDS011;4068;42.158;24.732;2023-04-16T01:45:49;4.72;;;3.65;;
8050;SDS011;4068;42.158;24.732;2023-04-16T01:48:15;3.80;;;3.38;;
8050;SDS011;4068;42.158;24.732;2023-04-16T01:50:40;8.15;;;3.58;;
8050;SDS011;4068;42.158;24.732;2023-04-16T01:53:06;7.13;;;3.30;;
8050;SDS011;4068;42.158;24.732;2023-04-16T01:55:34;9.38;;;3.67;;
8050;SDS011;4068;42.158;24.732;2023-04-16T01:58:00;5.90;;;3.45;;
8050;SDS011;4068;42.158;24.732;2023-04-16T02:00:25;4.10;;;3.47;;
8050;SDS011;4068;42.158;24.732;2023-04-16T02:02:51;5.60;;;3.17;;
8050;SDS011;4068;42.158;24.732;2023-04-16T02:05:16;4.03;;;3.05;;
8050;SDS011;4068;42.158;24.732;2023-04-16T02:07:42;3.83;;;3.33;;
8050;SDS011;4068;42.158;24.732;2023-04-16T02:10:07;4.38;;;3.40;;
8050;SDS011;4068;42.158;24.732;2023-04-16T02:12:34;5.38;;;3.42;;
8050;SDS011;4068;42.158;24.732;2023-04-16T02:15:00;7.93;;;3.80;;
8050;SDS011;4068;42.158;24.732;2023-04-16T02:17:25;6.03;;;3.15;;
8050;SDS011;4068;42.158;24.732;2023-04-16T02:19:50;3.72;;;3.30;;
8050;SDS011;4068;42.158;24.732;2023-04-16T02:22:16;6.65;;;3.47;;
8050;SDS011;4068;42.158;24.732;2023-04-16T02:24:41;4.28;;;3.58;;
8050;SDS011;4068;42.158;24.732;2023-04-16T02:27:07;9.70;;;3.42;;
8050;SDS011;4068;42.158;24.732;2023-04-16T02:29:32;6.20;;;3.47;;
8050;SDS011;4068;42.158;24.732;2023-04-16T02:31:58;6.82;;;3.63;;
8050;SDS011;4068;42.158;24.732;2023-04-16T02:34:23;11.48;;;3.78;;
8050;SDS011;4068;42.158;24.732;2023-04-16T02:36:49;4.90;;;3.80;;
8050;SDS011;4068;42.158;24.732;2023-04-16T02:39:15;4.47;;;3.58;;
8050;SDS011;4068;42.158;24.732;2023-04-16T02:41:40;5.72;;;4.05;;
8050;SDS011;4068;42.158;24.732;2023-04-16T02:44:06;7.70;;;4.53;;
8050;SDS011;4068;42.158;24.732;2023-04-16T02:46:31;7.43;;;3.92;;
8050;SDS011;4068;42.158;24.732;2023-04-16T02:48:56;5.95;;;4.15;;
8050;SDS011;4068;42.158;24.732;2023-04-16T02:51:22;7.25;;;3.80;;
8050;SDS011;4068;42.158;24.732;2023-04-16T02:53:47;8.70;;;4.38;;
8050;SDS011;4068;42.158;24.732;2023-04-16T02:56:12;7.05;;;3.55;;
8050;SDS011;4068;42.158;24.732;2023-04-16T02:58:38;6.90;;;3.42;;
8050;SDS011;4068;42.158;24.732;2023-04-16T03:01:03;6.50;;;3.95;;
8050;SDS011;4068;42.158;24.732;2023-04-16T03:03:29;7.88;;;3.90;;
8050;SDS011;4068;42.158;24.732;2023-04-16T03:05:54;6.03;;;4.20;;
8050;SDS011;4068;42.158;24.732;2023-04-16T03:08:20;7.55;;;4.50;;
8050;SDS011;4068;42.158;24.732;2023-04-16T03:10:45;6.82;;;4.00;;
8050;SDS011;4068;42.158;24.732;2023-04-16T03:13:10;12.07;;;4.70;;
8050;SDS011;4068;42.158;24.732;2023-04-16T03:15:36;6.93;;;4.35;;
8050;SDS011;4068;42.158;24.732;2023-04-16T03:18:01;9.80;;;4.43;;
8050;SDS011;4068;42.158;24.732;2023-04-16T03:20:27;10.25;;;4.30;;
8050;SDS011;4068;42.158;24.732;2023-04-16T03:22:52;8.30;;;3.85;;
8050;SDS011;4068;42.158;24.732;2023-04-16T03:25:18;7.90;;;4.88;;
8050;SDS011;4068;42.158;24.732;2023-04-16T03:27:43;8.93;;;4.32;;
8050;SDS011;4068;42.158;24.732;2023-04-16T03:30:09;9.43;;;4.75;;
8050;SDS011;4068;42.158;24.732;2023-04-16T03:32:36;7.53;;;4.28;;
8050;SDS011;4068;42.158;24.732;2023-04-16T03:35:02;6.53;;;4.20;;
8050;SDS011;4068;42.158;24.732;2023-04-16T03:37:28;5.35;;;4.13;;
8050;SDS011;4068;42.158;24.732;2023-04-16T03:39:54;5.85;;;4.40;;
8050;SDS011;4068;42.158;24.732;2023-04-16T03:42:19;11.00;;;3.95;;
8050;SDS011;4068;42.158;24.732;2023-04-16T03:44:44;8.60;;;5.10;;
8050;SDS011;4068;42.158;24.732;2023-04-16T03:47:10;6.28;;;4.43;;
8050;SDS011;4068;42.158;24.732;2023-04-16T03:49:35;8.30;;;4.60;;
8050;SDS011;4068;42.158;24.732;2023-04-16T03:52:00;8.50;;;4.78;;
8050;SDS011;4068;42.158;24.732;2023-04-16T03:54:26;10.40;;;5.03;;
8050;SDS011;4068;42.158;24.732;2023-04-16T03:56:52;6.10;;;4.80;;
8050;SDS011;4068;42.158;24.732;2023-04-16T03:59:17;6.40;;;5.18;;
8050;SDS011;4068;42.158;24.732;2023-04-16T04:01:43;9.63;;;5.60;;
8050;SDS011;4068;42.158;24.732;2023-04-16T04:04:08;11.95;;;5.50;;
8050;SDS011;4068;42.158;24.732;2023-04-16T04:06:34;13.27;;;5.28;;
8050;SDS011;4068;42.158;24.732;2023-04-16T04:09:00;10.27;;;5.50;;
8050;SDS011;4068;42.158;24.732;2023-04-16T04:11:25;10.63;;;5.40;;
8050;SDS011;4068;42.158;24.732;2023-04-16T04:13:50;12.38;;;6.05;;
8050;SDS011;4068;42.158;24.732;2023-04-16T04:16:16;8.88;;;7.35;;
8050;SDS011;4068;42.158;24.732;2023-04-16T04:18:41;12.10;;;7.95;;
8050;SDS011;4068;42.158;24.732;2023-04-16T04:21:07;15.80;;;7.68;;
8050;SDS011;4068;42.158;24.732;2023-04-16T04:23:33;15.98;;;7.50;;
8050;SDS011;4068;42.158;24.732;2023-04-16T04:26:00;12.75;;;8.13;;
8050;SDS011;4068;42.158;24.732;2023-04-16T04:28:28;12.90;;;7.95;;
8050;SDS011;4068;42.158;24.732;2023-04-16T04:30:54;11.90;;;7.53;;
8050;SDS011;4068;42.158;24.732;2023-04-16T04:33:19;9.05;;;6.63;;
8050;SDS011;4068;42.158;24.732;2023-04-16T04:35:44;9.88;;;6.72;;
8050;SDS011;4068;42.158;24.732;2023-04-16T04:38:10;12.80;;;7.68;;
8050;SDS011;4068;42.158;24.732;2023-04-16T04:40:35;11.45;;;7.28;;
8050;SDS011;4068;42.158;24.732;2023-04-16T04:43:01;10.40;;;6.95;;
8050;SDS011;4068;42.158;24.732;2023-04-16T04:45:26;12.07;;;6.78;;
8050;SDS011;4068;42.158;24.732;2023-04-16T04:47:52;12.73;;;7.22;;
8050;SDS011;4068;42.158;24.732;2023-04-16T04:50:17;13.32;;;7.13;;
8050;SDS011;4068;42.158;24.732;2023-04-16T04:52:43;12.45;;;7.38;;
8050;SDS011;4068;42.158;24.732;2023-04-16T04:55:09;12.10;;;6.53;;
8050;SDS011;4068;42.158;24.732;2023-04-16T04:57:34;11.63;;;7.35;;
8050;SDS011;4068;42.158;24.732;2023-04-16T04:59:59;11.30;;;7.28;;
8050;SDS011;4068;42.158;24.732;2023-04-16T05:02:27;14.35;;;6.90;;
8050;SDS011;4068;42.158;24.732;2023-04-16T05:04:53;13.90;;;7.35;;
8050;SDS011;4068;42.158;24.732;2023-04-16T05:07:18;10.63;;;7.15;;
8050;SDS011;4068;42.158;24.732;2023-04-16T05:09:45;13.10;;;8.07;;
8050;SDS011;4068;42.158;24.732;2023-04-16T05:12:10;13.77;;;8.25;;
8050;SDS011;4068;42.158;24.732;2023-04-16T05:14:36;13.43;;;7.95;;
8050;SDS011;4068;42.158;24.732;2023-04-16T05:17:01;18.85;;;9.13;;
8050;SDS011;4068;42.158;24.732;2023-04-16T05:19:26;10.00;;;7.00;;
8050;SDS011;4068;42.158;24.732;2023-04-16T05:21:52;15.90;;;7.78;;
8050;SDS011;4068;42.158;24.732;2023-04-16T05:24:18;10.32;;;6.65;;
8050;SDS011;4068;42.158;24.732;2023-04-16T05:26:44;12.82;;;7.85;;
8050;SDS011;4068;42.158;24.732;2023-04-16T05:29:09;16.42;;;8.05;;
8050;SDS011;4068;42.158;24.732;2023-04-16T05:31:35;16.65;;;9.13;;
8050;SDS011;4068;42.158;24.732;2023-04-16T05:34:00;14.70;;;8.65;;
8050;SDS011;4068;42.158;24.732;2023-04-16T05:36:25;14.63;;;8.48;;
8050;SDS011;4068;42.158;24.732;2023-04-16T05:38:51;11.23;;;8.13;;
8050;SDS011;4068;42.158;24.732;2023-04-16T05:41:16;12.18;;;7.07;;
8050;SDS011;4068;42.158;24.732;2023-04-16T05:43:42;10.77;;;7.20;;
8050;SDS011;4068;42.158;24.732;2023-04-16T05:46:07;11.98;;;6.97;;
8050;SDS011;4068;42.158;24.732;2023-04-16T05:48:32;9.75;;;6.32;;
8050;SDS011;4068;42.158;24.732;2023-04-16T05:50:58;10.05;;;7.15;;
8050;SDS011;4068;42.158;24.732;2023-04-16T05:53:23;11.27;;;6.90;;
8050;SDS011;4068;42.158;24.732;2023-04-16T05:55:49;12.57;;;7.53;;
8050;SDS011;4068;42.158;24.732;2023-04-16T05:58:14;11.23;;;4.88;;
8050;SDS011;4068;42.158;24.732;2023-04-16T06:00:39;8.95;;;4.53;;
8050;SDS011;4068;42.158;24.732;2023-04-16T06:03:05;7.10;;;3.70;;
8050;SDS011;4068;42.158;24.732;2023-04-16T06:05:30;4.80;;;3.70;;
8050;SDS011;4068;42.158;24.732;2023-04-16T06:07:56;9.27;;;3.97;;
8050;SDS011;4068;42.158;24.732;2023-04-16T06:10:21;6.68;;;3.75;;
8050;SDS011;4068;42.158;24.732;2023-04-16T06:12:47;7.43;;;3.78;;
8050;SDS011;4068;42.158;24.732;2023-04-16T06:15:12;9.70;;;4.20;;
8050;SDS011;4068;42.158;24.732;2023-04-16T06:17:38;9.48;;;4.20;;
8050;SDS011;4068;42.158;24.732;2023-04-16T06:20:04;8.68;;;4.80;;
8050;SDS011;4068;42.158;24.732;2023-04-16T06:22:30;6.10;;;4.15;;
8050;SDS011;4068;42.158;24.732;2023-04-16T06:24:55;6.30;;;4.50;;
8050;SDS011;4068;42.158;24.732;2023-04-16T06:27:20;11.27;;;4.07;;
8050;SDS011;4068;42.158;24.732;2023-04-16T06:29:46;6.18;;;4.25;;
8050;SDS011;4068;42.158;24.732;2023-04-16T06:32:11;6.93;;;4.70;;
8050;SDS011;4068;42.158;24.732;2023-04-16T06:34:37;9.60;;;4.80;;
8050;SDS011;4068;42.158;24.732;2023-04-16T06:37:05;8.38;;;4.07;;
8050;SDS011;4068;42.158;24.732;2023-04-16T06:39:30;9.70;;;3.67;;
8050;SDS011;4068;42.158;24.732;2023-04-16T06:41:56;6.57;;;3.55;;
8050;SDS011;4068;42.158;24.732;2023-04-16T06:44:21;8.63;;;3.63;;
8050;SDS011;4068;42.158;24.732;2023-04-16T06:46:47;5.32;;;3.80;;
8050;SDS011;4068;42.158;24.732;2023-04-16T06:49:12;5.30;;;3.83;;
8050;SDS011;4068;42.158;24.732;2023-04-16T06:51:38;7.82;;;4.10;;
8050;SDS011;4068;42.158;24.732;2023-04-16T06:54:03;5.53;;;3.72;;
8050;SDS011;4068;42.158;24.732;2023-04-16T06:56:28;8.35;;;4.03;;
8050;SDS011;4068;42.158;24.732;2023-04-16T06:58:54;9.27;;;3.47;;
8050;SDS011;4068;42.158;24.732;2023-04-16T07:01:21;5.95;;;4.20;;
8050;SDS011;4068;42.158;24.732;2023-04-16T07:03:47;6.38;;;3.95;;
8050;SDS011;4068;42.158;24.732;2023-04-16T07:06:12;7.90;;;4.70;;
8050;SDS011;4068;42.158;24.732;2023-04-16T07:08:38;6.35;;;3.85;;
8050;SDS011;4068;42.158;24.732;2023-04-16T07:11:03;6.25;;;3.88;;
8050;SDS011;4068;42.158;24.732;2023-04-16T07:13:29;6.15;;;4.05;;
8050;SDS011;4068;42.158;24.732;2023-04-16T07:15:54;10.45;;;4.40;;
8050;SDS011;4068;42.158;24.732;2023-04-16T07:18:20;7.68;;;4.28;;
8050;SDS011;4068;42.158;24.732;2023-04-16T07:20:45;6.93;;;4.18;;
8050;SDS011;4068;42.158;24.732;2023-04-16T07:23:11;6.85;;;4.03;;
8050;SDS011;4068;42.158;24.732;2023-04-16T07:25:37;7.22;;;4.20;;
8050;SDS011;4068;42.158;24.732;2023-04-16T07:28:02;8.32;;;4.70;;
8050;SDS011;4068;42.158;24.732;2023-04-16T07:30:28;8.02;;;4.65;;
8050;SDS011;4068;42.158;24.732;2023-04-16T07:33:00;7.35;;;4.20;;
8050;SDS011;4068;42.158;24.732;2023-04-16T07:35:27;10.68;;;4.70;;
8050;SDS011;4068;42.158;24.732;2023-04-16T07:37:52;6.70;;;4.60;;
8050;SDS011;4068;42.158;24.732;2023-04-16T07:40:18;7.85;;;4.28;;
8050;SDS011;4068;42.158;24.732;2023-04-16T07:42:43;5.32;;;4.35;;
8050;SDS011;4068;42.158;24.732;2023-04-16T07:45:09;4.38;;;3.70;;
8050;SDS011;4068;42.158;24.732;2023-04-16T07:47:34;6.65;;;4.00;;
8050;SDS011;4068;42.158;24.732;2023-04-16T07:50:00;8.93;;;4.00;;
8050;SDS011;4068;42.158;24.732;2023-04-16T07:52:25;10.50;;;3.88;;
8050;SDS011;4068;42.158;24.732;2023-04-16T07:54:51;8.75;;;3.97;;
8050;SDS011;4068;42.158;24.732;2023-04-16T07:57:16;4.22;;;3.45;;
8050;SDS011;4068;42.158;24.732;2023-04-16T07:59:42;8.50;;;3.90;;
8050;SDS011;4068;42.158;24.732;2023-04-16T08:02:08;4.40;;;3.22;;
8050;SDS011;4068;42.158;24.732;2023-04-16T08:04:40;4.72;;;3.40;;
8050;SDS011;4068;42.158;24.732;2023-04-16T08:07:06;8.27;;;4.20;;
8050;SDS011;4068;42.158;24.732;2023-04-16T08:09:32;7.00;;;3.85;;
8050;SDS011;4068;42.158;24.732;2023-04-16T08:11:59;9.27;;;3.65;;
8050;SDS011;4068;42.158;24.732;2023-04-16T08:14:24;9.05;;;4.15;;
8050;SDS011;4068;42.158;24.732;2023-04-16T08:16:50;9.13;;;3.47;;
8050;SDS011;4068;42.158;24.732;2023-04-16T08:19:16;3.72;;;3.03;;
8050;SDS011;4068;42.158;24.732;2023-04-16T08:21:41;6.10;;;3.22;;
8050;SDS011;4068;42.158;24.732;2023-04-16T08:24:07;6.25;;;3.53;;
8050;SDS011;4068;42.158;24.732;2023-04-16T08:26:32;6.70;;;3.60;;
8050;SDS011;4068;42.158;24.732;2023-04-16T08:28:58;6.82;;;3.65;;
8050;SDS011;4068;42.158;24.732;2023-04-16T08:31:23;5.47;;;3.70;;
8050;SDS011;4068;42.158;24.732;2023-04-16T08:33:49;9.90;;;4.35;;
8050;SDS011;4068;42.158;24.732;2023-04-16T08:36:14;9.55;;;4.25;;
8050;SDS011;4068;42.158;24.732;2023-04-16T08:38:40;6.38;;;3.80;;
8050;SDS011;4068;42.158;24.732;2023-04-16T08:41:05;4.65;;;3.72;;
8050;SDS011;4068;42.158;24.732;2023-04-16T08:43:36;9.80;;;4.05;;
8050;SDS011;4068;42.158;24.732;2023-04-16T08:46:06;9.35;;;4.47;;
8050;SDS011;4068;42.158;24.732;2023-04-16T08:48:32;8.02;;;3.90;;
8050;SDS011;4068;42.158;24.732;2023-04-16T08:50:59;7.35;;;3.65;;
8050;SDS011;4068;42.158;24.732;2023-04-16T08:53:32;6.07;;;3.60;;
8050;SDS011;4068;42.158;24.732;2023-04-16T08:56:04;7.28;;;4.05;;
8050;SDS011;4068;42.158;24.732;2023-04-16T08:58:35;9.82;;;3.30;;
8050;SDS011;4068;42.158;24.732;2023-04-16T09:01:02;5.55;;;3.42;;
8050;SDS011;4068;42.158;24.732;2023-04-16T09:03:29;8.38;;;3.78;;
8050;SDS011;4068;42.158;24.732;2023-04-16T09:05:56;8.38;;;4.05;;
8050;SDS011;4068;42.158;24.732;2023-04-16T09:08:23;8.88;;;4.32;;
8050;SDS011;4068;42.158;24.732;2023-04-16T09:10:49;11.25;;;4.30;;
8050;SDS011;4068;42.158;24.732;2023-04-16T09:13:15;7.22;;;4.22;;
8050;SDS011;4068;42.158;24.732;2023-04-16T09:15:44;8.95;;;3.95;;
8050;SDS011;4068;42.158;24.732;2023-04-16T09:18:10;8.57;;;3.75;;
8050;SDS011;4068;42.158;24.732;2023-04-16T09:20:36;6.93;;;3.88;;
8050;SDS011;4068;42.158;24.732;2023-04-16T09:23:02;7.78;;;3.53;;
8050;SDS011;4068;42.158;24.732;2023-04-16T09:25:31;6.65;;;3.55;;
8050;SDS011;4068;42.158;24.732;2023-04-16T09:28:01;6.40;;;3.38;;
8050;SDS011;4068;42.158;24.732;2023-04-16T09:30:27;6.35;;;3.45;;
8050;SDS011;4068;42.158;24.732;2023-04-16T09:33:10;9.73;;;3.50;;
8050;SDS011;4068;42.158;24.732;2023-04-16T09:35:47;4.97;;;2.90;;
8050;SDS011;4068;42.158;24.732;2023-04-16T09:38:16;5.38;;;3.17;;
8050;SDS011;4068;42.158;24.732;2023-04-16T09:40:42;6.75;;;3.70;;
8050;SDS011;4068;42.158;24.732;2023-04-16T09:43:12;3.72;;;2.92;;
8050;SDS011;4068;42.158;24.732;2023-04-16T09:45:48;7.30;;;3.30;;
8050;SDS011;4068;42.158;24.732;2023-04-16T09:48:15;7.38;;;3.63;;
8050;SDS011;4068;42.158;24.732;2023-04-16T09:50:45;4.85;;;2.72;;
8050;SDS011;4068;42.158;24.732;2023-04-16T09:53:22;4.78;;;2.97;;
8050;SDS011;4068;42.158;24.732;2023-04-16T09:55:52;4.18;;;3.20;;
8050;SDS011;4068;42.158;24.732;2023-04-16T09:58:20;4.95;;;3.08;;
8050;SDS011;4068;42.158;24.732;2023-04-16T10:00:48;5.57;;;3.13;;
8050;SDS011;4068;42.158;24.732;2023-04-16T10:03:14;4.40;;;3.05;;
8050;SDS011;4068;42.158;24.732;2023-04-16T10:05:40;7.88;;;3.47;;
8050;SDS011;4068;42.158;24.732;2023-04-16T10:08:13;4.78;;;3.08;;
8050;SDS011;4068;42.158;24.732;2023-04-16T10:10:39;4.75;;;2.97;;
8050;SDS011;4068;42.158;24.732;2023-04-16T10:13:05;7.40;;;3.38;;
8050;SDS011;4068;42.158;24.732;2023-04-16T10:15:31;8.68;;;3.08;;
8050;SDS011;4068;42.158;24.732;2023-04-16T10:17:56;8.98;;;3.03;;
8050;SDS011;4068;42.158;24.732;2023-04-16T10:20:24;11.63;;;6.72;;
8050;SDS011;4068;42.158;24.732;2023-04-16T10:22:50;6.90;;;3.15;;
8050;SDS011;4068;42.158;24.732;2023-04-16T10:25:18;9.10;;;3.10;;
8050;SDS011;4068;42.158;24.732;2023-04-16T10:27:44;5.78;;;2.65;;
8050;SDS011;4068;42.158;24.732;2023-04-16T10:30:10;6.53;;;3.47;;
8050;SDS011;4068;42.158;24.732;2023-04-16T10:32:39;5.47;;;3.00;;
8050;SDS011;4068;42.158;24.732;2023-04-16T10:35:05;4.85;;;2.75;;
8050;SDS011;4068;42.158;24.732;2023-04-16T10:37:31;4.40;;;2.60;;
8050;SDS011;4068;42.158;24.732;2023-04-16T10:39:57;7.38;;;3.65;;
8050;SDS011;4068;42.158;24.732;2023-04-16T10:42:24;3.58;;;2.80;;
8050;SDS011;4068;42.158;24.732;2023-04-16T10:44:50;4.20;;;3.10;;
8050;SDS011;4068;42.158;24.732;2023-04-16T10:47:15;5.68;;;2.78;;
8050;SDS011;4068;42.158;24.732;2023-04-16T10:49:41;4.65;;;3.10;;
8050;SDS011;4068;42.158;24.732;2023-04-16T10:52:14;5.97;;;3.63;;
8050;SDS011;4068;42.158;24.732;2023-04-16T10:54:44;8.20;;;3.30;;
8050;SDS011;4068;42.158;24.732;2023-04-16T10:57:15;4.03;;;3.10;;
8050;SDS011;4068;42.158;24.732;2023-04-16T10:59:42;6.95;;;3.10;;
8050;SDS011;4068;42.158;24.732;2023-04-16T11:02:12;6.55;;;2.83;;
8050;SDS011;4068;42.158;24.732;2023-04-16T11:04:39;6.35;;;3.20;;
8050;SDS011;4068;42.158;24.732;2023-04-16T11:12:12;5.45;;;3.22;;
8050;SDS011;4068;42.158;24.732;2023-04-16T11:14:39;5.28;;;2.90;;
8050;SDS011;4068;42.158;24.732;2023-04-16T11:17:06;4.60;;;2.80;;
8050;SDS011;4068;42.158;24.732;2023-04-16T11:19:31;7.15;;;3.40;;
8050;SDS011;4068;42.158;24.732;2023-04-16T11:21:57;6.75;;;2.90;;
8050;SDS011;4068;42.158;24.732;2023-04-16T11:24:28;4.97;;;3.22;;
8050;SDS011;4068;42.158;24.732;2023-04-16T11:26:54;6.15;;;3.30;;
8050;SDS011;4068;42.158;24.732;2023-04-16T11:29:20;10.15;;;3.03;;
8050;SDS011;4068;42.158;24.732;2023-04-16T11:31:52;7.75;;;3.45;;
8050;SDS011;4068;42.158;24.732;2023-04-16T11:34:18;5.60;;;3.00;;
8050;SDS011;4068;42.158;24.732;2023-04-16T11:36:44;5.05;;;3.25;;
8050;SDS011;4068;42.158;24.732;2023-04-16T11:39:10;6.85;;;3.35;;
8050;SDS011;4068;42.158;24.732;2023-04-16T11:41:42;7.22;;;3.78;;
8050;SDS011;4068;42.158;24.732;2023-04-16T11:44:42;6.50;;;3.33;;
8050;SDS011;4068;42.158;24.732;2023-04-16T11:47:04;7.55;;;4.03;;
8050;SDS011;4068;42.158;24.732;2023-04-16T11:49:31;8.20;;;3.80;;
8050;SDS011;4068;42.158;24.732;2023-04-16T11:51:57;7.47;;;3.40;;
8050;SDS011;4068;42.158;24.732;2023-04-16T11:54:23;11.35;;;4.10;;
8050;SDS011;4068;42.158;24.732;2023-04-16T11:56:51;10.50;;;3.78;;
8050;SDS011;4068;42.158;24.732;2023-04-16T12:01:45;10.27;;;3.88;;
8050;SDS011;4068;42.158;24.732;2023-04-16T12:04:13;8.23;;;4.25;;
8050;SDS011;4068;42.158;24.732;2023-04-16T12:06:40;5.22;;;3.45;;
8050;SDS011;4068;42.158;24.732;2023-04-16T12:09:28;11.13;;;4.00;;
8050;SDS011;4068;42.158;24.732;2023-04-16T12:11:53;9.48;;;3.75;;
8050;SDS011;4068;42.158;24.732;2023-04-16T12:14:19;7.95;;;3.67;;
8050;SDS011;4068;42.158;24.732;2023-04-16T12:16:45;7.35;;;3.47;;
8050;SDS011;4068;42.158;24.732;2023-04-16T12:19:11;8.05;;;3.85;;
8050;SDS011;4068;42.158;24.732;2023-04-16T12:21:38;7.38;;;3.53;;
8050;SDS011;4068;42.158;24.732;2023-04-16T12:24:04;12.48;;;4.00;;
8050;SDS011;4068;42.158;24.732;2023-04-16T12:26:44;9.05;;;3.47;;
8050;SDS011;4068;42.158;24.732;2023-04-16T12:29:14;6.25;;;3.85;;
8050;SDS011;4068;42.158;24.732;2023-04-16T12:31:45;6.03;;;3.30;;
8050;SDS011;4068;42.158;24.732;2023-04-16T12:34:11;14.07;;;3.85;;
8050;SDS011;4068;42.158;24.732;2023-04-16T12:36:39;7.82;;;3.70;;
8050;SDS011;4068;42.158;24.732;2023-04-16T12:39:04;9.48;;;3.30;;
8050;SDS011;4068;42.158;24.732;2023-04-16T12:41:30;7.63;;;3.78;;
8050;SDS011;4068;42.158;24.732;2023-04-16T12:44:02;7.60;;;3.55;;
8050;SDS011;4068;42.158;24.732;2023-04-16T12:46:33;7.30;;;3.90;;
8050;SDS011;4068;42.158;24.732;2023-04-16T12:49:00;6.47;;;3.60;;
8050;SDS011;4068;42.158;24.732;2023-04-16T12:51:26;10.07;;;4.78;;
8050;SDS011;4068;42.158;24.732;2023-04-16T12:53:51;6.10;;;3.10;;
8050;SDS011;4068;42.158;24.732;2023-04-16T12:56:18;5.50;;;3.50;;
8050;SDS011;4068;42.158;24.732;2023-04-16T12:58:43;6.53;;;3.38;;
8050;SDS011;4068;42.158;24.732;2023-04-16T13:01:08;7.95;;;3.33;;
8050;SDS011;4068;42.158;24.732;2023-04-16T13:03:35;6.18;;;3.38;;
8050;SDS011;4068;42.158;24.732;2023-04-16T13:06:01;8.65;;;5.00;;
8050;SDS011;4068;42.158;24.732;2023-04-16T13:08:27;7.88;;;4.15;;
8050;SDS011;4068;42.158;24.732;2023-04-16T13:10:53;5.93;;;3.65;;
8050;SDS011;4068;42.158;24.732;2023-04-16T13:13:19;6.38;;;3.70;;
8050;SDS011;4068;42.158;24.732;2023-04-16T13:15:44;5.38;;;3.17;;
8050;SDS011;4068;42.158;24.732;2023-04-16T13:18:10;9.70;;;4.40;;
8050;SDS011;4068;42.158;24.732;2023-04-16T13:20:35;9.65;;;3.60;;
8050;SDS011;4068;42.158;24.732;2023-04-16T13:23:01;6.60;;;3.45;;
8050;SDS011;4068;42.158;24.732;2023-04-16T13:25:29;5.88;;;3.53;;
8050;SDS011;4068;42.158;24.732;2023-04-16T13:27:55;3.42;;;2.80;;
8050;SDS011;4068;42.158;24.732;2023-04-16T13:30:20;7.13;;;3.67;;
8050;SDS011;4068;42.158;24.732;2023-04-16T13:32:46;4.90;;;2.90;;
8050;SDS011;4068;42.158;24.732;2023-04-16T13:35:11;5.32;;;3.05;;
8050;SDS011;4068;42.158;24.732;2023-04-16T13:37:37;4.18;;;2.90;;
8050;SDS011;4068;42.158;24.732;2023-04-16T13:40:02;5.75;;;2.72;;
8050;SDS011;4068;42.158;24.732;2023-04-16T13:42:28;5.22;;;3.03;;
8050;SDS011;4068;42.158;24.732;2023-04-16T13:44:53;6.25;;;3.20;;
8050;SDS011;4068;42.158;24.732;2023-04-16T13:47:19;3.92;;;3.00;;
8050;SDS011;4068;42.158;24.732;2023-04-16T13:49:44;6.70;;;3.08;;
8050;SDS011;4068;42.158;24.732;2023-04-16T13:52:11;7.95;;;3.28;;
8050;SDS011;4068;42.158;24.732;2023-04-16T13:54:38;5.50;;;2.60;;
8050;SDS011;4068;42.158;24.732;2023-04-16T13:57:04;10.20;;;3.15;;
8050;SDS011;4068;42.158;24.732;2023-04-16T13:59:30;6.40;;;3.20;;
8050;SDS011;4068;42.158;24.732;2023-04-16T14:01:55;4.10;;;3.45;;
8050;SDS011;4068;42.158;24.732;2023-04-16T14:04:21;9.40;;;3.88;;
8050;SDS011;4068;42.158;24.732;2023-04-16T14:06:48;9.13;;;3.55;;
8050;SDS011;4068;42.158;24.732;2023-04-16T14:09:13;7.10;;;2.95;;
8050;SDS011;4068;42.158;24.732;2023-04-16T14:11:39;9.13;;;3.10;;
8050;SDS011;4068;42.158;24.732;2023-04-16T14:14:05;6.57;;;3.30;;
8050;SDS011;4068;42.158;24.732;2023-04-16T14:16:30;5.78;;;3.50;;
8050;SDS011;4068;42.158;24.732;2023-04-16T14:18:56;7.00;;;3.55;;
8050;SDS011;4068;42.158;24.732;2023-04-16T14:21:21;8.30;;;3.35;;
8050;SDS011;4068;42.158;24.732;2023-04-16T14:23:47;14.30;;;3.88;;
8050;SDS011;4068;42.158;24.732;2023-04-16T14:26:12;11.65;;;3.72;;
8050;SDS011;4068;42.158;24.732;2023-04-16T14:28:38;7.93;;;4.15;;
8050;SDS011;4068;42.158;24.732;2023-04-16T14:31:04;10.75;;;4.13;;
8050;SDS011;4068;42.158;24.732;2023-04-16T14:33:30;8.65;;;4.10;;
8050;SDS011;4068;42.158;24.732;2023-04-16T14:35:56;6.70;;;3.92;;
8050;SDS011;4068;42.158;24.732;2023-04-16T14:38:22;15.50;;;4.80;;
8050;SDS011;4068;42.158;24.732;2023-04-16T14:40:47;6.68;;;4.15;;
8050;SDS011;4068;42.158;24.732;2023-04-16T14:43:13;10.52;;;4.25;;
8050;SDS011;4068;42.158;24.732;2023-04-16T14:45:38;8.25;;;3.75;;
8050;SDS011;4068;42.158;24.732;2023-04-16T14:48:05;5.80;;;3.83;;
8050;SDS011;4068;42.158;24.732;2023-04-16T14:50:30;8.18;;;3.67;;
8050;SDS011;4068;42.158;24.732;2023-04-16T14:52:58;5.25;;;4.10;;
8050;SDS011;4068;42.158;24.732;2023-04-16T14:55:23;9.10;;;3.65;;
8050;SDS011;4068;42.158;24.732;2023-04-16T14:57:48;7.60;;;3.67;;
8050;SDS011;4068;42.158;24.732;2023-04-16T15:00:14;7.78;;;3.78;;